createdAt,value
2022-12-08T00:00:02.183Z,1002.73
2022-12-08T00:01:01.995Z,1002.70
2022-12-08T00:02:02.331Z,1002.72
2022-12-08T00:03:02.659Z,1002.72
2022-12-08T00:04:02.272Z,1002.70
2022-12-08T00:05:02.583Z,1002.68
2022-12-08T00:06:02.769Z,1002.68
2022-12-08T00:07:02.939Z,1002.66
2022-12-08T00:08:02.939Z,1002.64
2022-12-08T00:09:02.677Z,1002.62
2022-12-08T00:10:14.321Z,1002.60
2022-12-08T00:11:02.869Z,1002.58
2022-12-08T00:12:02.797Z,1002.62
2022-12-08T00:13:02.868Z,1002.61
2022-12-08T00:14:02.793Z,1002.62
2022-12-08T00:15:03.035Z,1002.59
2022-12-08T00:16:02.921Z,1002.59
2022-12-08T00:17:02.882Z,1002.58
2022-12-08T00:18:03.289Z,1002.61
2022-12-08T00:19:02.973Z,1002.64
2022-12-08T00:20:03.081Z,1002.61
2022-12-08T00:21:02.994Z,1002.64
2022-12-08T00:22:02.109Z,1002.59
2022-12-08T00:23:02.116Z,1002.58
2022-12-08T00:24:01.875Z,1002.59
2022-12-08T00:25:02.564Z,1002.58
2022-12-08T00:26:02.211Z,1002.51
2022-12-08T00:27:02.631Z,1002.51
2022-12-08T00:28:02.324Z,1002.49
2022-12-08T00:29:02.542Z,1002.48
2022-12-08T00:30:02.382Z,1002.48
2022-12-08T00:31:02.104Z,1002.41
2022-12-08T00:32:02.946Z,1002.41
2022-12-08T00:33:02.618Z,1002.39
2022-12-08T00:34:02.828Z,1002.37
2022-12-08T00:35:03.502Z,1002.35
2022-12-08T00:36:02.731Z,1002.38
2022-12-08T00:37:02.860Z,1002.39
2022-12-08T00:38:02.555Z,1002.39
2022-12-08T00:39:02.429Z,1002.38
2022-12-08T00:40:02.709Z,1002.36
2022-12-08T00:41:02.505Z,1002.31
2022-12-08T00:42:02.662Z,1002.28
2022-12-08T00:43:02.446Z,1002.30
2022-12-08T00:44:02.550Z,1002.27
2022-12-08T00:45:02.967Z,1002.28
2022-12-08T00:46:02.480Z,1002.25
2022-12-08T00:47:02.205Z,1002.26
2022-12-08T00:48:02.604Z,1002.25
2022-12-08T00:49:02.599Z,1002.24
2022-12-08T00:50:02.550Z,1002.23
2022-12-08T00:51:02.218Z,1002.25
2022-12-08T00:52:02.625Z,1002.21
2022-12-08T00:53:03.042Z,1002.15
2022-12-08T00:54:02.855Z,1002.18
2022-12-08T00:55:02.551Z,1002.15
2022-12-08T00:56:03.226Z,1002.13
2022-12-08T00:57:02.696Z,1002.17
2022-12-08T00:58:03.117Z,1002.16
2022-12-08T00:59:03.252Z,1002.14
2022-12-08T01:00:03.206Z,1002.10
2022-12-08T01:01:03.137Z,1002.11
2022-12-08T01:02:02.713Z,1002.09
2022-12-08T01:03:03.227Z,1002.10
2022-12-08T01:04:03.143Z,1002.09
2022-12-08T01:05:03.219Z,1002.14
2022-12-08T01:06:03.035Z,1002.11
2022-12-08T01:07:02.828Z,1002.15
2022-12-08T01:08:02.852Z,1002.08
2022-12-08T01:09:03.348Z,1002.12
2022-12-08T01:10:03.572Z,1002.11
2022-12-08T01:11:03.155Z,1002.09
2022-12-08T01:12:02.984Z,1002.08
2022-12-08T01:13:03.440Z,1002.11
2022-12-08T01:14:02.814Z,1002.09
2022-12-08T01:15:03.487Z,1002.11
2022-12-08T01:16:03.402Z,1002.06
2022-12-08T01:17:03.048Z,1002.06
2022-12-08T01:18:03.278Z,1002.04
2022-12-08T01:19:02.837Z,1002.05
2022-12-08T01:20:03.722Z,1002.05
2022-12-08T01:21:03.058Z,1002.03
2022-12-08T01:22:02.519Z,1002.06
2022-12-08T01:23:02.797Z,1002.11
2022-12-08T01:24:02.553Z,1002.09
2022-12-08T01:25:02.763Z,1002.10
2022-12-08T01:26:02.877Z,1002.06
2022-12-08T01:27:02.705Z,1002.04
2022-12-08T01:28:03.163Z,1002.06
2022-12-08T01:29:03.168Z,1002.07
2022-12-08T01:30:03.086Z,1002.03
2022-12-08T01:31:02.817Z,1002.06
2022-12-08T01:32:02.570Z,1002.05
2022-12-08T01:33:02.307Z,1002.08
2022-12-08T01:34:02.800Z,1002.06
2022-12-08T01:35:02.352Z,1002.11
2022-12-08T01:36:02.543Z,1002.11
2022-12-08T01:37:03.415Z,1002.09
2022-12-08T01:38:02.892Z,1002.07
2022-12-08T01:39:03.130Z,1002.11
2022-12-08T01:40:03.821Z,1002.09
2022-12-08T01:41:03.283Z,1002.11
2022-12-08T01:42:02.516Z,1002.09
2022-12-08T01:43:02.302Z,1002.09
2022-12-08T01:44:02.799Z,1002.07
2022-12-08T01:45:02.902Z,1002.08
2022-12-08T01:46:03.004Z,1002.08
2022-12-08T01:47:03.025Z,1002.09
2022-12-08T01:48:02.892Z,1002.03
2022-12-08T01:49:02.691Z,1002.05
2022-12-08T01:50:03.544Z,1002.03
2022-12-08T01:51:03.243Z,1002.01
2022-12-08T01:52:02.901Z,1002.02
2022-12-08T01:53:03.291Z,1002.04
2022-12-08T01:54:02.772Z,1002.04
2022-12-08T01:55:02.827Z,1002.01
2022-12-08T01:56:03.234Z,1001.98
2022-12-08T01:57:02.550Z,1002.01
2022-12-08T01:58:02.292Z,1001.94
2022-12-08T01:59:02.589Z,1001.95
2022-12-08T02:00:03.118Z,1001.94
2022-12-08T02:01:02.586Z,1001.97
2022-12-08T02:02:02.972Z,1001.94
2022-12-08T02:03:03.170Z,1001.94
2022-12-08T02:04:03.188Z,1001.92
2022-12-08T02:05:03.033Z,1001.94
2022-12-08T02:06:02.805Z,1001.96
2022-12-08T02:07:07.836Z,1001.93
2022-12-08T02:08:03.137Z,1001.93
2022-12-08T02:09:03.482Z,1001.92
2022-12-08T02:10:03.719Z,1001.89
2022-12-08T02:11:03.320Z,1001.89
2022-12-08T02:12:02.729Z,1001.87
2022-12-08T02:13:02.895Z,1001.86
2022-12-08T02:14:02.722Z,1001.87
2022-12-08T02:15:05.227Z,1001.85
2022-12-08T02:16:03.010Z,1001.85
2022-12-08T02:17:03.498Z,1001.89
2022-12-08T02:18:03.262Z,1001.83
2022-12-08T02:19:29.648Z,1001.82
2022-12-08T02:20:03.146Z,1001.82
2022-12-08T02:21:03.137Z,1001.79
2022-12-08T02:22:02.651Z,1001.79
2022-12-08T02:23:02.351Z,1001.78
2022-12-08T02:24:02.822Z,1001.79
2022-12-08T02:25:02.840Z,1001.79
2022-12-08T02:26:02.297Z,1001.77
2022-12-08T02:27:02.385Z,1001.78
2022-12-08T02:28:02.550Z,1001.79
2022-12-08T02:29:02.898Z,1001.76
2022-12-08T02:30:03.123Z,1001.75
2022-12-08T02:31:02.874Z,1001.72
2022-12-08T02:32:02.924Z,1001.74
2022-12-08T02:33:02.875Z,1001.73
2022-12-08T02:34:03.163Z,1001.72
2022-12-08T02:35:02.683Z,1001.68
2022-12-08T02:36:03.023Z,1001.71
2022-12-08T02:37:02.345Z,1001.63
2022-12-08T02:38:02.683Z,1001.66
2022-12-08T02:39:02.423Z,1001.63
2022-12-08T02:40:02.586Z,1001.60
2022-12-08T02:41:02.613Z,1001.66
2022-12-08T02:42:02.859Z,1001.66
2022-12-08T02:43:02.381Z,1001.64
2022-12-08T02:44:02.796Z,1001.60
2022-12-08T02:45:02.485Z,1001.57
2022-12-08T02:46:02.960Z,1001.60
2022-12-08T02:47:03.147Z,1001.54
2022-12-08T02:48:02.895Z,1001.52
2022-12-08T02:49:02.825Z,1001.54
2022-12-08T02:50:03.471Z,1001.56
2022-12-08T02:51:03.336Z,1001.54
2022-12-08T02:52:02.426Z,1001.53
2022-12-08T02:53:02.428Z,1001.49
2022-12-08T02:54:02.218Z,1001.44
2022-12-08T02:55:02.481Z,1001.47
2022-12-08T02:56:02.141Z,1001.50
2022-12-08T02:57:02.693Z,1001.46
2022-12-08T02:58:02.712Z,1001.43
2022-12-08T02:59:03.116Z,1001.45
2022-12-08T03:00:03.506Z,1001.42
2022-12-08T03:01:03.330Z,1001.40
2022-12-08T03:02:02.382Z,1001.41
2022-12-08T03:03:02.651Z,1001.37
2022-12-08T03:04:02.653Z,1001.31
2022-12-08T03:05:02.349Z,1001.36
2022-12-08T03:06:02.018Z,1001.32
2022-12-08T03:07:01.946Z,1001.34
2022-12-08T03:08:01.778Z,1001.30
2022-12-08T03:09:01.954Z,1001.29
2022-12-08T03:10:01.697Z,1001.30
2022-12-08T03:11:01.961Z,1001.25
2022-12-08T03:12:01.884Z,1001.23
2022-12-08T03:13:02.237Z,1001.22
2022-12-08T03:14:01.945Z,1001.24
2022-12-08T03:15:02.326Z,1001.22
2022-12-08T03:16:02.172Z,1001.18
2022-12-08T03:17:02.473Z,1001.18
2022-12-08T03:18:01.973Z,1001.19
2022-12-08T03:19:02.006Z,1001.16
2022-12-08T03:20:02.686Z,1001.19
2022-12-08T03:21:02.494Z,1001.11
2022-12-08T03:22:02.600Z,1001.12
2022-12-08T03:23:02.300Z,1001.08
2022-12-08T03:24:02.213Z,1001.08
2022-12-08T03:25:02.102Z,1001.07
2022-12-08T03:26:02.209Z,1001.05
2022-12-08T03:27:02.243Z,1001.01
2022-12-08T03:28:02.723Z,1001.03
2022-12-08T03:29:02.399Z,1001.04
2022-12-08T03:30:02.918Z,1001.04
2022-12-08T03:31:02.323Z,1001.04
2022-12-08T03:32:02.343Z,1001.03
2022-12-08T03:33:02.802Z,1001.02
2022-12-08T03:34:02.230Z,1001.06
2022-12-08T03:35:02.694Z,1001.04
2022-12-08T03:36:02.446Z,1001.02
2022-12-08T03:37:02.493Z,1001.03
2022-12-08T03:38:02.839Z,1000.98
2022-12-08T03:39:02.323Z,1001.00
2022-12-08T03:40:03.076Z,1001.00
2022-12-08T03:41:02.759Z,1000.99
2022-12-08T03:42:02.885Z,1000.96
2022-12-08T03:43:02.300Z,1000.91
2022-12-08T03:44:02.598Z,1000.90
2022-12-08T03:45:02.884Z,1000.90
2022-12-08T03:46:02.429Z,1000.90
2022-12-08T03:47:02.132Z,1000.84
2022-12-08T03:48:01.918Z,1000.85
2022-12-08T03:49:02.364Z,1000.84
2022-12-08T03:50:02.543Z,1000.83
2022-12-08T03:51:02.120Z,1000.82
2022-12-08T03:52:01.473Z,1000.78
2022-12-08T03:53:02.045Z,1000.80
2022-12-08T03:54:01.742Z,1000.72
2022-12-08T03:55:02.041Z,1000.74
2022-12-08T03:56:01.831Z,1000.69
2022-12-08T03:57:01.501Z,1000.69
2022-12-08T03:58:01.808Z,1000.65
2022-12-08T03:59:01.484Z,1000.67
2022-12-08T04:00:02.378Z,1000.67
2022-12-08T04:01:01.468Z,1000.68
2022-12-08T04:02:02.397Z,1000.67
2022-12-08T04:03:02.190Z,1000.68
2022-12-08T04:04:01.899Z,1000.67
2022-12-08T04:05:02.288Z,1000.63
2022-12-08T04:06:01.987Z,1000.64
2022-12-08T04:07:02.248Z,1000.60
2022-12-08T04:08:02.808Z,1000.58
2022-12-08T04:09:02.348Z,1000.59
2022-12-08T04:10:03.146Z,1000.55
2022-12-08T04:11:02.404Z,1000.53
2022-12-08T04:12:01.855Z,1000.55
2022-12-08T04:13:02.232Z,1000.54
2022-12-08T04:14:01.832Z,1000.52
2022-12-08T04:15:02.101Z,1000.52
2022-12-08T04:16:02.444Z,1000.53
2022-12-08T04:17:02.345Z,1000.48
2022-12-08T04:18:02.475Z,1000.51
2022-12-08T04:19:02.888Z,1000.49
2022-12-08T04:20:02.775Z,1000.50
2022-12-08T04:21:02.305Z,1000.48
2022-12-08T04:22:01.662Z,1000.46
2022-12-08T04:23:02.030Z,1000.49
2022-12-08T04:24:02.084Z,1000.46
2022-12-08T04:25:01.491Z,1000.44
2022-12-08T04:26:01.769Z,1000.42
2022-12-08T04:27:02.360Z,1000.40
2022-12-08T04:28:02.014Z,1000.42
2022-12-08T04:29:01.875Z,1000.39
2022-12-08T04:30:02.575Z,1000.42
2022-12-08T04:31:01.999Z,1000.45
2022-12-08T04:32:02.601Z,1000.45
2022-12-08T04:33:02.390Z,1000.45
2022-12-08T04:34:02.648Z,1000.42
2022-12-08T04:35:02.318Z,1000.40
2022-12-08T04:36:02.598Z,1000.43
2022-12-08T04:37:02.059Z,1000.40
2022-12-08T04:38:01.917Z,1000.38
2022-12-08T04:39:02.419Z,1000.38
2022-12-08T04:40:02.629Z,1000.35
2022-12-08T04:41:02.301Z,1000.35
2022-12-08T04:42:02.600Z,1000.39
2022-12-08T04:43:02.885Z,1000.33
2022-12-08T04:44:02.499Z,1000.39
2022-12-08T04:45:02.639Z,1000.36
2022-12-08T04:46:02.927Z,1000.37
2022-12-08T04:47:02.418Z,1000.36
2022-12-08T04:48:02.485Z,1000.36
2022-12-08T04:49:02.059Z,1000.38
2022-12-08T04:50:03.131Z,1000.37
2022-12-08T04:51:02.088Z,1000.40
2022-12-08T04:52:02.373Z,1000.41
2022-12-08T04:53:02.146Z,1000.41
2022-12-08T04:54:02.463Z,1000.39
2022-12-08T04:55:02.764Z,1000.37
2022-12-08T04:56:02.810Z,1000.35
2022-12-08T04:57:02.995Z,1000.38
2022-12-08T04:58:02.421Z,1000.35
2022-12-08T04:59:02.559Z,1000.31
2022-12-08T05:00:03.028Z,1000.32
2022-12-08T05:01:02.460Z,1000.30
2022-12-08T05:02:02.949Z,1000.32
2022-12-08T05:03:02.849Z,1000.33
2022-12-08T05:04:02.661Z,1000.33
2022-12-08T05:05:02.997Z,1000.32
2022-12-08T05:06:02.655Z,1000.31
2022-12-08T05:07:02.987Z,1000.31
2022-12-08T05:08:02.953Z,1000.31
2022-12-08T05:09:02.998Z,1000.30
2022-12-08T05:10:03.622Z,1000.29
2022-12-08T05:11:02.874Z,1000.31
2022-12-08T05:12:03.172Z,1000.30
2022-12-08T05:13:03.287Z,1000.28
2022-12-08T05:14:03.203Z,1000.27
2022-12-08T05:15:03.610Z,1000.28
2022-12-08T05:16:03.013Z,1000.30
2022-12-08T05:17:07.766Z,1000.28
2022-12-08T05:18:02.418Z,1000.30
2022-12-08T05:19:02.087Z,1000.28
2022-12-08T05:20:02.885Z,1000.29
2022-12-08T05:21:02.728Z,1000.24
2022-12-08T05:22:02.825Z,1000.26
2022-12-08T05:23:02.572Z,1000.22
2022-12-08T05:24:02.946Z,1000.23
2022-12-08T05:25:02.634Z,1000.20
2022-12-08T05:26:03.052Z,1000.19
2022-12-08T05:27:03.227Z,1000.19
2022-12-08T05:28:32.898Z,1000.22
2022-12-08T05:29:03.261Z,1000.16
2022-12-08T05:30:03.761Z,1000.19
2022-12-08T05:31:03.413Z,1000.16
2022-12-08T05:32:02.753Z,1000.15
2022-12-08T05:33:02.842Z,1000.16
2022-12-08T05:34:03.296Z,1000.15
2022-12-08T05:35:02.822Z,1000.14
2022-12-08T05:36:02.316Z,1000.14
2022-12-08T05:37:03.154Z,1000.12
2022-12-08T05:38:02.878Z,1000.14
2022-12-08T05:39:03.204Z,1000.12
2022-12-08T05:40:04.067Z,1000.08
2022-12-08T05:41:02.849Z,1000.10
2022-12-08T05:42:02.822Z,1000.07
2022-12-08T05:43:02.528Z,1000.09
2022-12-08T05:44:02.525Z,1000.10
2022-12-08T05:45:02.858Z,1000.05
2022-12-08T05:46:02.556Z,1000.09
2022-12-08T05:47:02.526Z,1000.04
2022-12-08T05:48:03.126Z,1000.05
2022-12-08T05:49:02.592Z,1000.05
2022-12-08T05:50:03.370Z,999.99
2022-12-08T05:51:02.919Z,1000.00
2022-12-08T05:52:03.246Z,999.94
2022-12-08T05:53:02.849Z,999.95
2022-12-08T05:54:03.334Z,999.97
2022-12-08T05:55:03.043Z,999.95
2022-12-08T05:56:03.359Z,999.94
2022-12-08T05:57:02.580Z,999.96
2022-12-08T05:58:07.611Z,999.93
2022-12-08T05:59:02.452Z,999.94
2022-12-08T06:00:03.190Z,999.92
2022-12-08T06:01:02.495Z,999.91
2022-12-08T06:02:02.989Z,999.90
2022-12-08T06:03:03.078Z,999.86
2022-12-08T06:04:02.489Z,999.86
2022-12-08T06:05:02.857Z,999.86
2022-12-08T06:06:02.593Z,999.85
2022-12-08T06:07:02.934Z,999.87
2022-12-08T06:08:02.646Z,999.87
2022-12-08T06:09:02.879Z,999.84
2022-12-08T06:10:03.042Z,999.85
2022-12-08T06:11:02.468Z,999.81
2022-12-08T06:12:02.537Z,999.83
2022-12-08T06:13:02.177Z,999.85
2022-12-08T06:14:02.515Z,999.86
2022-12-08T06:15:02.616Z,999.93
2022-12-08T06:16:02.632Z,999.94
2022-12-08T06:17:02.519Z,999.92
2022-12-08T06:18:02.421Z,999.93
2022-12-08T06:19:02.131Z,999.95
2022-12-08T06:20:02.857Z,999.92
2022-12-08T06:21:02.389Z,999.94
2022-12-08T06:22:02.387Z,999.95
2022-12-08T06:23:01.913Z,999.94
2022-12-08T06:24:02.237Z,999.92
2022-12-08T06:25:04.918Z,999.93
2022-12-08T06:26:02.268Z,999.92
2022-12-08T06:27:02.693Z,999.94
2022-12-08T06:28:02.464Z,999.90
2022-12-08T06:29:02.134Z,999.90
2022-12-08T06:30:03.168Z,999.90
2022-12-08T06:31:02.699Z,999.89
2022-12-08T06:32:02.405Z,999.89
2022-12-08T06:33:02.258Z,999.88
2022-12-08T06:34:02.629Z,999.87
2022-12-08T06:35:02.222Z,999.86
2022-12-08T06:36:02.536Z,999.85
2022-12-08T06:37:01.653Z,999.87
2022-12-08T06:38:01.864Z,999.85
2022-12-08T06:39:02.215Z,999.89
2022-12-08T06:40:01.919Z,999.87
2022-12-08T06:41:02.152Z,999.87
2022-12-08T06:42:02.466Z,999.84
2022-12-08T06:43:01.860Z,999.86
2022-12-08T06:44:02.271Z,999.80
2022-12-08T06:45:02.057Z,999.82
2022-12-08T06:46:02.132Z,999.79
2022-12-08T06:47:01.917Z,999.85
2022-12-08T06:48:02.360Z,999.82
2022-12-08T06:49:02.119Z,999.85
2022-12-08T06:50:02.970Z,999.88
2022-12-08T06:51:02.116Z,999.86
2022-12-08T06:52:02.681Z,999.88
2022-12-08T06:53:05.518Z,999.86
2022-12-08T06:54:02.673Z,999.84
2022-12-08T06:55:02.589Z,999.88
2022-12-08T06:56:03.030Z,999.89
2022-12-08T06:57:02.150Z,999.91
2022-12-08T06:58:02.598Z,999.90
2022-12-08T06:59:02.195Z,999.89
2022-12-08T07:00:03.186Z,999.93
2022-12-08T07:01:02.644Z,999.90
2022-12-08T07:02:03.253Z,999.94
2022-12-08T07:03:03.690Z,999.92
2022-12-08T07:04:03.191Z,999.93
2022-12-08T07:05:03.065Z,999.95
2022-12-08T07:06:04.344Z,999.95
2022-12-08T07:07:02.853Z,999.99
2022-12-08T07:08:03.358Z,999.95
2022-12-08T07:09:03.039Z,999.97
2022-12-08T07:10:03.342Z,999.95
2022-12-08T07:11:03.059Z,999.97
2022-12-08T07:12:03.472Z,999.93
2022-12-08T07:13:03.536Z,999.98
2022-12-08T07:14:03.642Z,999.96
2022-12-08T07:15:03.225Z,999.92
2022-12-08T07:16:03.645Z,999.97
2022-12-08T07:17:02.892Z,999.98
2022-12-08T07:18:03.354Z,999.97
2022-12-08T07:19:03.305Z,1000.02
2022-12-08T07:20:03.192Z,999.95
2022-12-08T07:21:02.974Z,1000.01
2022-12-08T07:22:03.586Z,1000.00
2022-12-08T07:23:03.279Z,999.99
2022-12-08T07:24:03.747Z,999.98
2022-12-08T07:25:03.295Z,999.94
2022-12-08T07:26:03.592Z,999.98
2022-12-08T07:27:02.386Z,1000.04
2022-12-08T07:28:02.597Z,1000.00
2022-12-08T07:29:02.683Z,1000.00
2022-12-08T07:30:03.587Z,999.97
2022-12-08T07:31:02.681Z,1000.02
2022-12-08T07:32:03.428Z,1000.02
2022-12-08T07:33:02.873Z,1000.03
2022-12-08T07:34:03.213Z,1000.06
2022-12-08T07:35:02.958Z,1000.02
2022-12-08T07:36:03.384Z,1000.05
2022-12-08T07:37:03.018Z,1000.01
2022-12-08T07:38:03.201Z,1000.02
2022-12-08T07:39:02.827Z,1000.00
2022-12-08T07:40:03.579Z,1000.04
2022-12-08T07:41:03.382Z,1000.00
2022-12-08T07:42:02.375Z,999.99
2022-12-08T07:43:02.669Z,999.98
2022-12-08T07:44:03.042Z,1000.01
2022-12-08T07:45:02.604Z,1000.00
2022-12-08T07:46:02.917Z,1000.02
2022-12-08T07:47:03.149Z,1000.01
2022-12-08T07:48:02.905Z,1000.00
2022-12-08T07:49:03.409Z,1000.01
2022-12-08T07:50:03.695Z,1000.00
2022-12-08T07:51:03.125Z,1000.05
2022-12-08T07:52:02.619Z,999.97
2022-12-08T07:53:02.322Z,999.96
2022-12-08T07:54:02.843Z,999.96
2022-12-08T07:55:02.915Z,1000.02
2022-12-08T07:56:02.493Z,999.98
2022-12-08T07:57:02.940Z,1000.00
2022-12-08T07:58:02.752Z,1000.04
2022-12-08T07:59:03.213Z,1000.03
2022-12-08T08:00:03.189Z,1000.03
2022-12-08T08:01:03.258Z,1000.06
2022-12-08T08:02:22.789Z,1000.01
2022-12-08T08:03:02.229Z,1000.06
2022-12-08T08:04:02.574Z,1000.02
2022-12-08T08:05:02.236Z,1000.03
2022-12-08T08:06:02.297Z,999.99
2022-12-08T08:07:02.764Z,1000.02
2022-12-08T08:08:02.598Z,999.95
2022-12-08T08:09:02.404Z,999.90
2022-12-08T08:10:03.334Z,999.97
2022-12-08T08:11:08.937Z,999.91
2022-12-08T08:12:29.504Z,999.95
2022-12-08T08:13:02.149Z,999.98
2022-12-08T08:14:02.269Z,999.96
2022-12-08T08:15:02.152Z,999.99
2022-12-08T08:16:02.476Z,999.93
2022-12-08T08:17:02.226Z,1000.01
2022-12-08T08:18:02.039Z,999.99
2022-12-08T08:19:02.067Z,1000.06
2022-12-08T08:20:02.336Z,1000.03
2022-12-08T08:21:15.854Z,1000.05
2022-12-08T08:22:02.022Z,1000.03
2022-12-08T08:23:01.937Z,1000.06
2022-12-08T08:24:02.250Z,1000.04
2022-12-08T08:25:01.823Z,1000.03
2022-12-08T08:26:02.088Z,1000.09
2022-12-08T08:27:02.471Z,1000.09
2022-12-08T08:28:02.286Z,1000.09
2022-12-08T08:29:02.358Z,1000.08
2022-12-08T08:30:02.979Z,1000.09
2022-12-08T08:31:02.093Z,1000.10
2022-12-08T08:32:02.623Z,1000.10
2022-12-08T08:33:02.397Z,1000.09
2022-12-08T08:34:02.135Z,1000.15
2022-12-08T08:35:02.491Z,1000.13
2022-12-08T08:36:02.476Z,1000.10
2022-12-08T08:37:01.890Z,1000.12
2022-12-08T08:38:01.844Z,1000.11
2022-12-08T08:39:01.716Z,1000.07
2022-12-08T08:40:01.807Z,1000.12
2022-12-08T08:41:01.487Z,1000.09
2022-12-08T08:42:01.661Z,1000.06
2022-12-08T08:43:02.115Z,1000.09
2022-12-08T08:44:01.629Z,1000.05
2022-12-08T08:45:02.047Z,1000.09
2022-12-08T08:46:01.815Z,1000.08
2022-12-08T08:47:02.285Z,1000.07
2022-12-08T08:48:02.002Z,1000.11
2022-12-08T08:49:01.785Z,1000.09
2022-12-08T08:50:02.472Z,1000.08
2022-12-08T08:51:02.277Z,1000.11
2022-12-08T08:52:01.861Z,1000.09
2022-12-08T08:53:01.879Z,1000.09
2022-12-08T08:54:01.660Z,1000.08
2022-12-08T08:55:01.863Z,1000.06
2022-12-08T08:56:02.856Z,1000.05
2022-12-08T08:57:01.994Z,1000.09
2022-12-08T08:58:01.864Z,1000.06
2022-12-08T08:59:02.170Z,1000.09
2022-12-08T09:00:02.482Z,1000.08
2022-12-08T09:01:01.563Z,1000.07
2022-12-08T09:02:02.464Z,1000.08
2022-12-08T09:03:02.312Z,1000.07
2022-12-08T09:04:02.034Z,1000.08
2022-12-08T09:05:02.447Z,1000.03
2022-12-08T09:06:01.935Z,1000.05
2022-12-08T09:07:02.797Z,1000.09
2022-12-08T09:08:02.459Z,1000.07
2022-12-08T09:09:02.386Z,1000.06
2022-12-08T09:10:02.760Z,1000.03
2022-12-08T09:11:02.494Z,1000.03
2022-12-08T09:12:02.877Z,1000.05
2022-12-08T09:13:02.321Z,1000.03
2022-12-08T09:14:02.830Z,1000.07
2022-12-08T09:15:02.257Z,1000.08
2022-12-08T09:16:02.626Z,1000.06
2022-12-08T09:17:01.866Z,1000.10
2022-12-08T09:18:02.445Z,1000.02
2022-12-08T09:19:01.948Z,1000.07
2022-12-08T09:20:02.691Z,1000.07
2022-12-08T09:21:02.458Z,1000.09
2022-12-08T09:22:02.107Z,1000.10
2022-12-08T09:23:02.175Z,1000.11
2022-12-08T09:24:02.401Z,1000.11
2022-12-08T09:25:02.744Z,1000.11
2022-12-08T09:26:02.491Z,1000.10
2022-12-08T09:27:02.759Z,1000.12
2022-12-08T09:28:02.380Z,1000.07
2022-12-08T09:29:02.680Z,1000.11
2022-12-08T09:30:03.280Z,1000.11
2022-12-08T09:31:02.782Z,1000.13
2022-12-08T09:32:02.729Z,1000.12
2022-12-08T09:33:02.362Z,1000.08
2022-12-08T09:34:02.437Z,1000.09
2022-12-08T09:35:02.297Z,1000.11
2022-12-08T09:36:02.692Z,1000.08
2022-12-08T09:37:01.987Z,1000.05
2022-12-08T09:38:02.001Z,1000.06
2022-12-08T09:39:01.927Z,1000.09
2022-12-08T09:40:02.797Z,1000.08
2022-12-08T09:41:02.187Z,1000.10
2022-12-08T09:42:02.370Z,1000.09
2022-12-08T09:43:02.565Z,1000.06
2022-12-08T09:44:02.741Z,1000.04
2022-12-08T09:45:02.816Z,1000.03
2022-12-08T09:46:02.945Z,1000.06
2022-12-08T09:47:01.920Z,1000.01
2022-12-08T09:48:02.324Z,1000.04
2022-12-08T09:49:01.817Z,1000.01
2022-12-08T09:50:03.034Z,1000.05
2022-12-08T09:51:02.247Z,1000.07
2022-12-08T09:52:01.981Z,1000.05
2022-12-08T09:53:02.463Z,1000.07
2022-12-08T09:54:02.175Z,1000.05
2022-12-08T09:55:02.021Z,1000.06
2022-12-08T09:56:02.002Z,1000.03
2022-12-08T09:57:01.717Z,1000.05
2022-12-08T09:58:01.811Z,1000.06
2022-12-08T09:59:01.642Z,1000.03
2022-12-08T10:00:02.260Z,1000.02
2022-12-08T10:01:01.928Z,1000.05
2022-12-08T10:02:03.330Z,1000.00
2022-12-08T10:03:02.867Z,1000.03
2022-12-08T10:04:02.667Z,999.99
2022-12-08T10:05:03.325Z,999.95
2022-12-08T10:06:02.752Z,999.98
2022-12-08T10:07:02.355Z,999.96
2022-12-08T10:08:02.226Z,999.95
2022-12-08T10:09:02.440Z,999.94
2022-12-08T10:10:02.809Z,999.96
2022-12-08T10:11:02.745Z,999.93
2022-12-08T10:12:02.864Z,999.94
2022-12-08T10:13:03.339Z,999.90
2022-12-08T10:14:02.719Z,999.96
2022-12-08T10:15:03.196Z,999.96
2022-12-08T10:16:02.992Z,999.95
2022-12-08T10:17:02.612Z,999.93
2022-12-08T10:18:02.735Z,999.93
2022-12-08T10:19:02.603Z,999.92
2022-12-08T10:20:03.046Z,999.95
2022-12-08T10:21:02.862Z,999.89
2022-12-08T10:22:02.751Z,999.88
2022-12-08T10:23:02.568Z,999.93
2022-12-08T10:24:02.953Z,999.87
2022-12-08T10:25:02.611Z,999.91
2022-12-08T10:26:03.017Z,999.90
2022-12-08T10:27:02.161Z,999.87
2022-12-08T10:28:02.164Z,999.84
2022-12-08T10:29:02.255Z,999.87
2022-12-08T10:30:02.257Z,999.84
2022-12-08T10:31:02.460Z,999.84
2022-12-08T10:32:02.909Z,999.82
2022-12-08T10:33:02.850Z,999.76
2022-12-08T10:34:02.746Z,999.73
2022-12-08T10:35:02.990Z,999.71
2022-12-08T10:36:02.698Z,999.73
2022-12-08T10:37:02.188Z,999.72
2022-12-08T10:38:02.105Z,999.69
2022-12-08T10:39:01.932Z,999.73
2022-12-08T10:40:02.896Z,999.66
2022-12-08T10:41:03.038Z,999.69
2022-12-08T10:42:02.526Z,999.69
2022-12-08T10:43:02.334Z,999.69
2022-12-08T10:44:02.763Z,999.66
2022-12-08T10:45:02.453Z,999.61
2022-12-08T10:46:02.324Z,999.61
2022-12-08T10:47:02.962Z,999.63
2022-12-08T10:48:03.151Z,999.65
2022-12-08T10:49:02.700Z,999.64
2022-12-08T10:50:03.097Z,999.56
2022-12-08T10:51:03.211Z,999.59
2022-12-08T10:52:02.137Z,999.56
2022-12-08T10:53:01.963Z,999.56
2022-12-08T10:54:02.466Z,999.53
2022-12-08T10:55:02.025Z,999.55
2022-12-08T10:56:02.590Z,999.49
2022-12-08T10:57:02.331Z,999.47
2022-12-08T10:58:02.551Z,999.53
2022-12-08T10:59:02.169Z,999.56
2022-12-08T11:00:02.637Z,999.54
2022-12-08T11:01:02.736Z,999.50
2022-12-08T11:02:03.137Z,999.50
2022-12-08T11:03:02.963Z,999.52
2022-12-08T11:04:02.587Z,999.50
2022-12-08T11:05:03.038Z,999.52
2022-12-08T11:06:09.023Z,999.48
2022-12-08T11:07:02.272Z,999.47
2022-12-08T11:08:02.118Z,999.46
2022-12-08T11:09:02.121Z,999.46
2022-12-08T11:10:02.265Z,999.46
2022-12-08T11:11:02.320Z,999.43
2022-12-08T11:12:02.544Z,999.43
2022-12-08T11:13:02.229Z,999.43
2022-12-08T11:14:02.389Z,999.40
2022-12-08T11:15:02.113Z,999.39
2022-12-08T11:16:02.357Z,999.44
2022-12-08T11:17:02.986Z,999.39
2022-12-08T11:18:02.901Z,999.39
2022-12-08T11:19:02.925Z,999.36
2022-12-08T11:20:03.192Z,999.35
2022-12-08T11:21:02.843Z,999.34
2022-12-08T11:22:02.303Z,999.30
2022-12-08T11:23:02.142Z,999.29
2022-12-08T11:24:01.989Z,999.32
2022-12-08T11:25:02.156Z,999.25
2022-12-08T11:26:01.870Z,999.25
2022-12-08T11:27:02.952Z,999.30
2022-12-08T11:28:02.642Z,999.28
2022-12-08T11:29:02.607Z,999.29
2022-12-08T11:30:02.857Z,999.31
2022-12-08T11:31:02.806Z,999.30
2022-12-08T11:32:02.597Z,999.34
2022-12-08T11:33:01.981Z,999.33
2022-12-08T11:34:02.632Z,999.30
2022-12-08T11:35:02.121Z,999.35
2022-12-08T11:36:02.067Z,999.31
2022-12-08T11:37:02.939Z,999.34
2022-12-08T11:38:13.692Z,999.29
2022-12-08T11:39:03.016Z,999.27
2022-12-08T11:40:03.065Z,999.24
2022-12-08T11:41:02.640Z,999.26
2022-12-08T11:42:02.404Z,999.26
2022-12-08T11:43:01.786Z,999.29
2022-12-08T11:44:02.185Z,999.22
2022-12-08T11:45:02.163Z,999.28
2022-12-08T11:46:02.191Z,999.20
2022-12-08T11:47:02.607Z,999.19
2022-12-08T11:48:02.216Z,999.17
2022-12-08T11:49:06.386Z,999.21
2022-12-08T11:50:02.339Z,999.15
2022-12-08T11:51:02.319Z,999.11
2022-12-08T11:52:02.962Z,999.13
2022-12-08T11:53:02.907Z,999.15
2022-12-08T11:54:02.503Z,999.13
2022-12-08T11:55:02.609Z,999.12
2022-12-08T11:56:02.360Z,999.13
2022-12-08T11:57:01.632Z,999.12
2022-12-08T11:58:02.299Z,999.11
2022-12-08T11:59:02.081Z,999.10
2022-12-08T12:00:02.224Z,999.12
2022-12-08T12:01:01.786Z,999.10
2022-12-08T12:02:03.229Z,999.10
2022-12-08T12:03:02.783Z,999.07
2022-12-08T12:04:03.096Z,999.03
2022-12-08T12:05:02.815Z,999.01
2022-12-08T12:06:13.569Z,999.02
2022-12-08T12:07:01.778Z,999.01
2022-12-08T12:08:01.972Z,999.00
2022-12-08T12:09:02.201Z,999.03
2022-12-08T12:10:02.903Z,999.03
2022-12-08T12:11:01.902Z,999.01
2022-12-08T12:12:01.799Z,999.02
2022-12-08T12:13:02.381Z,999.07